createdAt,value
2019-02-24T00:00:49.617Z,-6.75
2019-02-24T00:03:18.961Z,-6.72
2019-02-24T00:05:48.332Z,-6.75
2019-02-24T00:08:17.670Z,-6.71
2019-02-24T00:10:47.012Z,-6.72
2019-02-24T00:13:16.377Z,-6.69
2019-02-24T00:15:45.830Z,-6.78
2019-02-24T00:18:15.226Z,-6.79
2019-02-24T00:20:44.582Z,-6.91
2019-02-24T00:23:13.952Z,-6.90
2019-02-24T00:25:43.340Z,-6.87
2019-02-24T00:28:12.677Z,-6.85
2019-02-24T00:30:42.065Z,-6.87
2019-02-24T00:33:11.451Z,-6.92
2019-02-24T00:35:40.903Z,-7.03
2019-02-24T00:38:10.204Z,-7.05
2019-02-24T00:40:39.571Z,-7.11
2019-02-24T00:43:09.053Z,-7.13
2019-02-24T00:45:38.515Z,-7.16
2019-02-24T00:48:07.891Z,-7.28
2019-02-24T00:50:37.311Z,-7.39
2019-02-24T00:53:06.728Z,-7.53
2019-02-24T00:55:36.053Z,-7.67
2019-02-24T00:58:05.402Z,-7.75
2019-02-24T01:00:34.770Z,-7.79
2019-02-24T01:03:04.232Z,-7.96
2019-02-24T01:05:33.591Z,-8.00
2019-02-24T01:08:02.952Z,-7.94
2019-02-24T01:10:32.298Z,-7.96
2019-02-24T01:13:01.796Z,-7.94
2019-02-24T01:15:31.236Z,-7.87
2019-02-24T01:18:00.567Z,-7.83
2019-02-24T01:20:29.913Z,-7.72
2019-02-24T01:22:59.258Z,-7.73
2019-02-24T01:25:28.628Z,-7.76
2019-02-24T01:27:58.020Z,-7.83
2019-02-24T01:30:27.379Z,-7.77
2019-02-24T01:32:56.717Z,-7.69
2019-02-24T01:35:26.113Z,-7.53
2019-02-24T01:37:55.468Z,-7.52
2019-02-24T01:40:24.794Z,-7.54
2019-02-24T01:42:54.135Z,-7.52
2019-02-24T01:45:23.480Z,-7.58
2019-02-24T01:47:52.821Z,-7.48
2019-02-24T01:50:22.191Z,-7.45
2019-02-24T01:52:51.539Z,-7.44
2019-02-24T01:55:20.896Z,-7.43
2019-02-24T01:57:50.262Z,-7.49
2019-02-24T02:00:19.637Z,-7.40
2019-02-24T02:02:49.113Z,-7.43
2019-02-24T02:05:18.482Z,-7.30
2019-02-24T02:07:47.850Z,-7.39
2019-02-24T02:10:17.188Z,-7.36
2019-02-24T02:12:46.540Z,-7.40
2019-02-24T02:15:15.875Z,-7.40
2019-02-24T02:17:45.249Z,-7.42
2019-02-24T02:20:14.596Z,-7.36
2019-02-24T02:22:43.958Z,-7.27
2019-02-24T02:25:13.307Z,-7.25
2019-02-24T02:27:42.625Z,-7.31
2019-02-24T02:30:12.048Z,-7.25
2019-02-24T02:32:41.407Z,-7.21
2019-02-24T02:35:10.717Z,-7.10
2019-02-24T02:37:40.048Z,-7.24
2019-02-24T02:40:09.730Z,-7.24
2019-02-24T02:42:39.048Z,-7.16
2019-02-24T02:45:08.462Z,-7.16
2019-02-24T02:47:37.836Z,-7.14
2019-02-24T02:50:07.340Z,-7.07
2019-02-24T02:52:37.470Z,-7.10
2019-02-24T02:55:06.905Z,-7.09
2019-02-24T02:57:36.243Z,-7.15
2019-02-24T03:00:10.027Z,-7.23
2019-02-24T03:02:39.391Z,-7.17
2019-02-24T03:05:08.885Z,-7.13
2019-02-24T03:07:42.157Z,-7.12
2019-02-24T03:10:11.496Z,-7.04
2019-02-24T03:12:40.830Z,-7.05
2019-02-24T03:15:10.301Z,-7.06
2019-02-24T03:17:39.697Z,-7.08
2019-02-24T03:20:09.111Z,-7.04
2019-02-24T03:22:38.441Z,-7.05
2019-02-24T03:25:07.881Z,-7.04
2019-02-24T03:27:37.185Z,-7.03
2019-02-24T03:30:06.671Z,-7.00
2019-02-24T03:32:36.022Z,-7.03
2019-02-24T03:35:05.368Z,-7.07
2019-02-24T03:37:34.741Z,-7.00
2019-02-24T03:40:04.161Z,-7.02
2019-02-24T03:42:33.587Z,-7.10
2019-02-24T03:45:02.968Z,-7.17
2019-02-24T03:47:32.339Z,-7.23
2019-02-24T03:50:01.691Z,-7.14
2019-02-24T03:52:31.020Z,-7.12
2019-02-24T03:55:00.421Z,-7.11
2019-02-24T03:57:29.765Z,-7.13
2019-02-24T03:59:59.093Z,-7.17
2019-02-24T04:02:28.396Z,-7.28
2019-02-24T04:04:57.718Z,-7.22
2019-02-24T04:07:27.057Z,-7.21
2019-02-24T04:09:56.436Z,-7.24
2019-02-24T04:12:25.933Z,-7.18
2019-02-24T04:14:55.286Z,-7.20
2019-02-24T04:17:24.640Z,-7.19
2019-02-24T04:19:53.951Z,-7.16
2019-02-24T04:22:23.253Z,-7.25
2019-02-24T04:24:52.562Z,-7.24
2019-02-24T04:27:21.950Z,-7.21
2019-02-24T04:29:51.330Z,-7.17
2019-02-24T04:32:20.702Z,-7.17
2019-02-24T04:34:50.055Z,-7.23
2019-02-24T04:37:19.442Z,-7.22
2019-02-24T04:39:48.783Z,-7.25
2019-02-24T04:42:18.139Z,-7.21
2019-02-24T04:44:47.520Z,-7.18
2019-02-24T04:47:16.887Z,-7.18
2019-02-24T04:49:46.210Z,-7.17
2019-02-24T04:52:15.539Z,-7.20
2019-02-24T04:54:44.949Z,-7.23
2019-02-24T04:57:14.287Z,-7.28
2019-02-24T04:59:43.672Z,-7.27
2019-02-24T05:02:13.038Z,-7.36
2019-02-24T05:04:42.351Z,-7.48
2019-02-24T05:07:11.683Z,-7.60
2019-02-24T05:09:41.003Z,-7.63
2019-02-24T05:12:10.354Z,-7.66
2019-02-24T05:14:39.723Z,-7.91
2019-02-24T05:17:09.105Z,-8.39
2019-02-24T05:19:38.436Z,-8.76
2019-02-24T05:22:07.793Z,-8.97
2019-02-24T05:24:37.095Z,-9.08
2019-02-24T05:27:06.451Z,-9.32
2019-02-24T05:29:44.706Z,-9.66
2019-02-24T05:32:06.976Z,-9.83
2019-02-24T05:34:36.351Z,-9.86
2019-02-24T05:37:05.693Z,-9.90
2019-02-24T05:39:35.031Z,-9.94
2019-02-24T05:42:04.349Z,-9.76
2019-02-24T05:44:33.737Z,-8.92
2019-02-24T05:47:03.328Z,-8.09
2019-02-24T05:49:32.677Z,-7.36
2019-02-24T05:52:02.029Z,-6.95
2019-02-24T05:54:32.529Z,-6.29
2019-02-24T05:57:01.960Z,-6.28
2019-02-24T05:59:31.593Z,-5.95
2019-02-24T06:02:01.068Z,-5.66
2019-02-24T06:04:30.463Z,-5.31
2019-02-24T06:06:59.904Z,-5.32
2019-02-24T06:09:29.279Z,-4.92
2019-02-24T06:11:58.608Z,-4.65
2019-02-24T06:14:28.500Z,-4.76
2019-02-24T06:16:57.826Z,-4.36
2019-02-24T06:19:27.502Z,-4.18
2019-02-24T06:21:56.888Z,-3.57
2019-02-24T06:24:26.242Z,-3.18
2019-02-24T06:26:55.618Z,-3.08
2019-02-24T06:29:24.937Z,-2.92
2019-02-24T06:31:54.473Z,-3.42
2019-02-24T06:34:25.257Z,-3.18
2019-02-24T06:36:54.645Z,-2.20
2019-02-24T06:39:23.972Z,-2.26
2019-02-24T06:41:53.399Z,-1.10
2019-02-24T06:44:22.753Z,-1.13
2019-02-24T06:46:52.155Z,-1.13
2019-02-24T06:49:21.667Z,-0.92
2019-02-24T06:51:51.178Z,-0.81
2019-02-24T06:54:20.603Z,-0.81
2019-02-24T06:56:49.963Z,-0.25
2019-02-24T06:59:19.268Z,-0.30
2019-02-24T07:01:48.732Z,-1.38
2019-02-24T07:04:18.285Z,-1.23
2019-02-24T07:06:47.636Z,-1.04
2019-02-24T07:09:16.984Z,-0.81
2019-02-24T07:11:46.306Z,-1.24
2019-02-24T07:14:15.654Z,-1.08
2019-02-24T07:16:45.229Z,-1.16
2019-02-24T07:19:14.617Z,-1.54
2019-02-24T07:21:44.010Z,-1.22
2019-02-24T07:24:13.363Z,-1.11
2019-02-24T07:26:42.787Z,-0.99
2019-02-24T07:29:12.106Z,-0.90
2019-02-24T07:31:41.441Z,-0.84
2019-02-24T07:34:10.809Z,-0.76
2019-02-24T07:36:40.119Z,-0.70
2019-02-24T07:39:09.479Z,-0.90
2019-02-24T07:41:38.811Z,-1.42
2019-02-24T07:44:08.166Z,-1.06
2019-02-24T07:46:37.543Z,-0.70
2019-02-24T07:49:06.961Z,-1.31
2019-02-24T07:51:36.324Z,-0.52
2019-02-24T07:54:05.723Z,-0.63
2019-02-24T07:56:35.023Z,-0.49
2019-02-24T07:59:04.395Z,-1.03
2019-02-24T08:01:33.851Z,-1.42
2019-02-24T08:04:03.199Z,-1.56
2019-02-24T08:06:32.513Z,-0.72
2019-02-24T08:09:01.917Z,-0.90
2019-02-24T08:11:31.286Z,-1.81
2019-02-24T08:14:00.638Z,-1.26
2019-02-24T08:16:29.992Z,-1.04
2019-02-24T08:18:59.363Z,-1.63
2019-02-24T08:21:28.723Z,-1.63
2019-02-24T08:23:58.113Z,-1.51
2019-02-24T08:26:27.492Z,-1.15
2019-02-24T08:28:56.844Z,-1.32
2019-02-24T08:31:26.214Z,-0.34
2019-02-24T08:33:55.560Z,-0.36
2019-02-24T08:36:24.952Z,-0.23
2019-02-24T08:38:54.280Z,-0.32
2019-02-24T08:41:23.616Z,-0.07
2019-02-24T08:43:53.005Z,0.07
2019-02-24T08:46:22.357Z,-0.08
2019-02-24T08:48:51.765Z,-0.24
2019-02-24T08:51:21.098Z,-0.14
2019-02-24T08:53:50.491Z,0.51
2019-02-24T08:56:19.868Z,0.69
2019-02-24T08:58:49.220Z,0.67
2019-02-24T09:01:18.707Z,0.71
2019-02-24T09:03:48.204Z,0.83
2019-02-24T09:06:17.507Z,0.45
2019-02-24T09:08:46.886Z,0.65
2019-02-24T09:11:16.225Z,0.09
2019-02-24T09:13:45.532Z,0.11
2019-02-24T09:16:14.881Z,0.69
2019-02-24T09:18:44.225Z,1.07
2019-02-24T09:21:13.564Z,0.84
2019-02-24T09:23:42.896Z,0.07
2019-02-24T09:26:12.251Z,0.30
2019-02-24T09:28:41.573Z,0.97
2019-02-24T09:31:10.988Z,2.33
2019-02-24T09:33:40.318Z,2.03
2019-02-24T09:36:09.744Z,1.50
2019-02-24T09:38:39.127Z,1.69
2019-02-24T09:41:08.507Z,1.62
2019-02-24T09:43:37.971Z,1.42
2019-02-24T09:46:07.320Z,1.44
2019-02-24T09:48:36.892Z,1.68
2019-02-24T09:51:06.257Z,1.92
2019-02-24T09:53:35.648Z,1.57
2019-02-24T09:56:05.324Z,1.08
2019-02-24T09:58:34.696Z,0.57
2019-02-24T10:01:10.600Z,1.34
2019-02-24T10:03:35.211Z,2.30
2019-02-24T10:06:04.599Z,1.37
2019-02-24T10:08:33.956Z,0.89
2019-02-24T10:11:03.324Z,0.78
2019-02-24T10:13:32.664Z,0.63
2019-02-24T10:16:02.115Z,0.79
2019-02-24T10:18:31.480Z,1.76
2019-02-24T10:21:01.025Z,1.02
2019-02-24T10:23:30.414Z,0.84
2019-02-24T10:25:59.847Z,1.25
2019-02-24T10:28:29.189Z,1.38
2019-02-24T10:30:58.703Z,1.16
2019-02-24T10:33:28.110Z,0.68
2019-02-24T10:35:57.463Z,0.87
2019-02-24T10:38:26.866Z,1.82
2019-02-24T10:40:56.262Z,0.78
2019-02-24T10:43:25.690Z,1.36
2019-02-24T10:45:55.001Z,1.72
2019-02-24T10:48:24.356Z,1.89
2019-02-24T10:50:53.726Z,1.17
2019-02-24T10:53:23.051Z,2.01
2019-02-24T10:55:52.490Z,2.05
2019-02-24T10:58:21.826Z,1.51
2019-02-24T11:00:51.161Z,2.30
2019-02-24T11:03:20.811Z,2.86
2019-02-24T11:05:50.168Z,2.70
2019-02-24T11:08:19.614Z,1.41
2019-02-24T11:10:48.976Z,2.51
2019-02-24T11:13:18.350Z,2.31
2019-02-24T11:15:47.722Z,3.27
2019-02-24T11:18:17.135Z,3.29
2019-02-24T11:20:46.532Z,3.43
2019-02-24T11:23:15.992Z,3.67
2019-02-24T11:25:45.447Z,2.90
2019-02-24T11:28:14.809Z,2.18
2019-02-24T11:30:44.385Z,1.92
2019-02-24T11:33:13.734Z,2.18
2019-02-24T11:35:43.180Z,2.12
2019-02-24T11:38:13.594Z,2.21
2019-02-24T11:40:43.192Z,2.22
2019-02-24T11:43:15.433Z,2.47
2019-02-24T11:45:44.546Z,1.70
2019-02-24T11:48:14.563Z,1.06
2019-02-24T11:50:44.298Z,0.41
2019-02-24T11:53:14.218Z,0.43
2019-02-24T11:55:46.729Z,0.30
2019-02-24T11:58:16.681Z,0.27
2019-02-24T12:00:46.573Z,0.99
2019-02-24T12:03:16.411Z,0.99
2019-02-24T12:05:46.486Z,1.25
2019-02-24T12:08:21.501Z,1.36
2019-02-24T12:10:57.188Z,1.54
2019-02-24T12:13:34.572Z,1.68
2019-02-24T12:16:03.980Z,1.48
2019-02-24T12:18:33.280Z,1.00
2019-02-24T12:21:02.621Z,0.90
2019-02-24T12:23:31.919Z,1.04
2019-02-24T12:26:01.304Z,1.39
2019-02-24T12:28:30.665Z,1.57
2019-02-24T12:31:00.075Z,1.96
2019-02-24T12:33:29.402Z,1.85
2019-02-24T12:35:58.890Z,0.97
2019-02-24T12:38:28.330Z,0.77
2019-02-24T12:40:58.881Z,0.65
2019-02-24T12:43:28.359Z,0.34
2019-02-24T12:45:57.694Z,0.07
2019-02-24T12:48:27.042Z,0.12
2019-02-24T12:50:56.386Z,0.18
2019-02-24T12:53:27.524Z,0.36
2019-02-24T12:55:56.782Z,0.36
2019-02-24T12:58:26.123Z,0.32
2019-02-24T13:00:55.483Z,-0.05
2019-02-24T13:03:24.850Z,-0.46
2019-02-24T13:05:54.204Z,-0.64
2019-02-24T13:08:23.517Z,-0.59
2019-02-24T13:10:52.886Z,-0.55
2019-02-24T13:13:22.238Z,-0.58
2019-02-24T13:15:51.848Z,-0.45
2019-02-24T13:18:21.209Z,-0.34
2019-02-24T13:20:50.547Z,-0.44
2019-02-24T13:23:20.018Z,-0.60
2019-02-24T13:25:49.442Z,-0.54
2019-02-24T13:28:18.776Z,-0.67
2019-02-24T13:30:48.243Z,-0.69
2019-02-24T13:33:17.647Z,-0.73
2019-02-24T13:35:48.475Z,-0.74
2019-02-24T13:38:17.836Z,-0.74
2019-02-24T13:40:47.188Z,-0.54
2019-02-24T13:43:16.858Z,-0.61
2019-02-24T13:45:46.289Z,-0.67
2019-02-24T13:48:15.677Z,-0.98
2019-02-24T13:50:45.034Z,-1.16
2019-02-24T13:53:14.370Z,-1.10
2019-02-24T13:55:43.704Z,-1.03
2019-02-24T13:58:13.054Z,-0.96
2019-02-24T14:00:42.510Z,-0.90
2019-02-24T14:03:11.968Z,-1.09
2019-02-24T14:05:41.732Z,-1.21
2019-02-24T14:08:11.433Z,-1.15
2019-02-24T14:10:40.757Z,-1.11
2019-02-24T14:13:10.120Z,-1.21
2019-02-24T14:15:39.765Z,-1.13
2019-02-24T14:18:09.150Z,-1.03
2019-02-24T14:20:38.979Z,-0.91
2019-02-24T14:23:08.435Z,-0.97
2019-02-24T14:25:37.800Z,-1.21
2019-02-24T14:28:07.146Z,-1.27
2019-02-24T14:30:36.534Z,-1.34
2019-02-24T14:33:05.860Z,-1.56
2019-02-24T14:35:35.184Z,-1.56
2019-02-24T14:38:04.676Z,-1.60
2019-02-24T14:40:34.010Z,-1.74
2019-02-24T14:43:03.364Z,-1.69
2019-02-24T14:45:32.758Z,-1.73
2019-02-24T14:48:02.090Z,-1.68
2019-02-24T14:50:31.747Z,-1.79
2019-02-24T14:53:01.475Z,-2.95
2019-02-24T14:55:30.790Z,-1.74
2019-02-24T14:58:00.109Z,-1.77
2019-02-24T15:00:29.816Z,-1.78
2019-02-24T15:02:59.166Z,-1.78
2019-02-24T15:05:28.791Z,-1.69
2019-02-24T15:07:58.458Z,-1.59
2019-02-24T15:10:28.027Z,-1.66
2019-02-24T15:12:57.349Z,-1.61
2019-02-24T15:15:32.895Z,-1.64
2019-02-24T15:17:58.206Z,-1.76
2019-02-24T15:20:27.564Z,-1.68
2019-02-24T15:22:56.913Z,-1.69
2019-02-24T15:25:26.227Z,-1.86
2019-02-24T15:27:55.587Z,-1.95
2019-02-24T15:30:27.682Z,-1.98
2019-02-24T15:32:57.016Z,-2.12
2019-02-24T15:35:26.435Z,-2.29
2019-02-24T15:37:55.950Z,-2.27
2019-02-24T15:40:26.173Z,-2.30
2019-02-24T15:42:55.494Z,-2.44
2019-02-24T15:45:25.096Z,-2.35
2019-02-24T15:47:54.406Z,-2.59
2019-02-24T15:50:23.749Z,-2.66
2019-02-24T15:52:53.131Z,-2.65
2019-02-24T15:55:22.829Z,-2.70
2019-02-24T15:57:52.163Z,-2.56
2019-02-24T16:00:21.737Z,-2.58
2019-02-24T16:02:51.218Z,-2.70
2019-02-24T16:05:20.553Z,-2.90
2019-02-24T16:07:50.011Z,-2.86
2019-02-24T16:10:19.513Z,-2.89
2019-02-24T16:12:48.894Z,-2.92
2019-02-24T16:15:39.507Z,-2.90
2019-02-24T16:18:09.389Z,-2.86
2019-02-24T16:20:38.905Z,-3.06
2019-02-24T16:23:08.648Z,-3.06
2019-02-24T16:25:38.311Z,-3.14
2019-02-24T16:28:07.750Z,-3.20
2019-02-24T16:30:37.174Z,-3.17
2019-02-24T16:33:10.626Z,-3.25
2019-02-24T16:35:37.609Z,-3.26
2019-02-24T16:38:08.401Z,-3.24
2019-02-24T16:40:38.235Z,-3.31
2019-02-24T16:43:07.609Z,-3.33
2019-02-24T16:45:40.014Z,-3.29
2019-02-24T16:48:09.370Z,-3.36
2019-02-24T16:50:38.766Z,-3.29
2019-02-24T16:53:08.093Z,-3.33
2019-02-24T16:55:37.517Z,-3.40
2019-02-24T16:58:06.922Z,-3.31
2019-02-24T17:00:36.290Z,-3.38
2019-02-24T17:03:05.674Z,-3.45
2019-02-24T17:05:35.148Z,-3.46
2019-02-24T17:08:04.848Z,-3.51
2019-02-24T17:10:34.516Z,-3.49
2019-02-24T17:13:03.949Z,-3.45
2019-02-24T17:15:33.329Z,-3.45
2019-02-24T17:18:03.027Z,-3.30
2019-02-24T17:20:32.405Z,-3.24
2019-02-24T17:23:02.718Z,-3.38
2019-02-24T17:25:32.128Z,-3.59
2019-02-24T17:28:01.494Z,-3.57
2019-02-24T17:30:31.188Z,-3.53
2019-02-24T17:33:00.532Z,-3.47
2019-02-24T17:35:30.000Z,-3.55
2019-02-24T17:37:59.416Z,-3.53
2019-02-24T17:40:29.437Z,-3.49
2019-02-24T17:42:58.787Z,-3.40
2019-02-24T17:45:29.570Z,-3.62
2019-02-24T17:47:58.921Z,-3.63
2019-02-24T17:50:28.291Z,-3.52
2019-02-24T17:52:57.686Z,-3.55
2019-02-24T17:55:27.096Z,-3.42
2019-02-24T17:57:56.723Z,-3.51
2019-02-24T18:00:32.138Z,-3.53
2019-02-24T18:03:01.850Z,-3.57
2019-02-24T18:05:33.736Z,-3.65
2019-02-24T18:08:03.206Z,-3.61
2019-02-24T18:10:32.747Z,-3.65
2019-02-24T18:13:02.499Z,-3.63
2019-02-24T18:15:31.871Z,-3.64
2019-02-24T18:18:01.386Z,-3.68
2019-02-24T18:20:30.870Z,-3.75
2019-02-24T18:23:00.259Z,-3.71
2019-02-24T18:25:29.904Z,-3.69
2019-02-24T18:27:59.663Z,-3.72
2019-02-24T18:30:31.288Z,-3.59
2019-02-24T18:33:00.721Z,-3.66
2019-02-24T18:35:30.127Z,-3.65
2019-02-24T18:37:59.514Z,-3.56
2019-02-24T18:40:29.393Z,-3.59
2019-02-24T18:43:00.526Z,-4.39
2019-02-24T18:45:30.133Z,-3.56
2019-02-24T18:47:59.457Z,-3.44
2019-02-24T18:50:28.862Z,-3.45
2019-02-24T18:52:58.241Z,-3.45
2019-02-24T18:55:27.602Z,-3.37
2019-02-24T18:57:56.971Z,-3.49
2019-02-24T19:00:26.332Z,-3.50
2019-02-24T19:02:55.721Z,-3.54
2019-02-24T19:05:25.529Z,-3.53
2019-02-24T19:07:56.057Z,-3.57
2019-02-24T19:10:25.452Z,-3.54
2019-02-24T19:12:54.846Z,-3.21
2019-02-24T19:15:24.223Z,-3.22
2019-02-24T19:17:53.575Z,-3.13
2019-02-24T19:20:24.703Z,-3.29
2019-02-24T19:22:54.023Z,-3.40
2019-02-24T19:25:23.412Z,-3.42
2019-02-24T19:27:52.873Z,-3.42
2019-02-24T19:30:24.622Z,-3.37
2019-02-24T19:32:55.747Z,-3.40
2019-02-24T19:35:25.158Z,-3.43
2019-02-24T19:37:54.905Z,-3.45
2019-02-24T19:40:24.264Z,-3.55
2019-02-24T19:42:53.623Z,-3.55
2019-02-24T19:45:23.035Z,-3.47
2019-02-24T19:47:52.392Z,-3.44
2019-02-24T19:50:21.887Z,-3.48
2019-02-24T19:52:51.243Z,-3.53
2019-02-24T19:55:20.578Z,-3.47
2019-02-24T19:57:49.959Z,-3.49
2019-02-24T20:00:20.516Z,-3.53
2019-02-24T20:02:49.980Z,-3.47
2019-02-24T20:05:19.739Z,-3.42
2019-02-24T20:07:49.166Z,-3.37
2019-02-24T20:10:20.401Z,-3.49
2019-02-24T20:12:49.755Z,-3.50
2019-02-24T20:15:19.071Z,-3.55
2019-02-24T20:17:48.710Z,-4.92
2019-02-24T20:20:18.070Z,-3.68
2019-02-24T20:22:47.485Z,-3.72
2019-02-24T20:25:16.994Z,-3.76
2019-02-24T20:27:49.176Z,-3.78
2019-02-24T20:30:23.571Z,-3.78
2019-02-24T20:32:52.902Z,-3.77
2019-02-24T20:35:22.272Z,-3.74
2019-02-24T20:37:51.663Z,-3.71
2019-02-24T20:40:25.252Z,-3.71
2019-02-24T20:42:54.884Z,-3.71
2019-02-24T20:45:26.323Z,-3.70
2019-02-24T20:47:56.195Z,-3.76
2019-02-24T20:50:25.578Z,-3.78
2019-02-24T20:52:54.926Z,-3.83
2019-02-24T20:55:24.516Z,-3.82
2019-02-24T20:57:53.910Z,-3.81
2019-02-24T21:00:25.983Z,-3.78
2019-02-24T21:02:55.948Z,-3.84
2019-02-24T21:05:25.409Z,-3.89
2019-02-24T21:07:54.767Z,-3.91
2019-02-24T21:10:24.186Z,-4.00
2019-02-24T21:12:54.636Z,-3.87
2019-02-24T21:15:24.366Z,-3.90
2019-02-24T21:17:53.781Z,-4.12
2019-02-24T21:20:25.058Z,-4.19
2019-02-24T21:22:54.845Z,-4.15
2019-02-24T21:25:24.217Z,-3.98
2019-02-24T21:27:53.575Z,-3.84
2019-02-24T21:30:23.344Z,-5.70
2019-02-24T21:32:52.722Z,-3.84
2019-02-24T21:35:22.217Z,-4.00
2019-02-24T21:37:51.545Z,-4.05
2019-02-24T21:40:20.913Z,-4.12
2019-02-24T21:42:50.267Z,-4.04
2019-02-24T21:45:20.181Z,-3.98
2019-02-24T21:47:49.548Z,-3.87
2019-02-24T21:50:19.110Z,-3.87
2019-02-24T21:52:48.499Z,-3.89
2019-02-24T21:55:17.926Z,-3.93
2019-02-24T21:57:47.447Z,-4.08
2019-02-24T22:00:20.741Z,-4.11
2019-02-24T22:02:50.108Z,-4.25
2019-02-24T22:05:19.784Z,-4.34
2019-02-24T22:07:49.121Z,-4.35
2019-02-24T22:10:18.588Z,-4.42
2019-02-24T22:12:47.940Z,-4.41
2019-02-24T22:15:21.476Z,-4.41
2019-02-24T22:17:50.837Z,-4.43
2019-02-24T22:20:20.211Z,-4.40
2019-02-24T22:22:49.592Z,-4.37
2019-02-24T22:25:19.181Z,-4.43
2019-02-24T22:27:48.517Z,-4.49
2019-02-24T22:30:18.379Z,-4.51
2019-02-24T22:32:47.859Z,-4.53
2019-02-24T22:35:17.210Z,-4.53
2019-02-24T22:37:46.573Z,-4.58
2019-02-24T22:40:16.988Z,-4.68
2019-02-24T22:42:46.787Z,-4.71
2019-02-24T22:47:47.803Z,-4.68
2019-02-24T22:50:18.234Z,-4.85
2019-02-24T22:52:47.677Z,-5.00
2019-02-24T22:55:17.233Z,-5.12
2019-02-24T22:57:46.574Z,-5.28
2019-02-24T23:01:09.857Z,-5.60
2019-02-24T23:03:40.687Z,-5.77
2019-02-24T23:06:10.046Z,-5.81
2019-02-24T23:08:39.381Z,-5.78
2019-02-24T23:11:08.896Z,-5.79
2019-02-24T23:13:39.396Z,-5.80
2019-02-24T23:16:08.871Z,-5.75
2019-02-24T23:18:38.235Z,-5.78
2019-02-24T23:21:07.571Z,-5.75
2019-02-24T23:23:36.960Z,-5.78
2019-02-24T23:26:06.332Z,-5.73
2019-02-24T23:28:35.704Z,-5.70
2019-02-24T23:31:05.108Z,-5.69
2019-02-24T23:33:34.484Z,-5.74
2019-02-24T23:36:03.830Z,-5.74
2019-02-24T23:38:34.410Z,-5.59
2019-02-24T23:41:03.762Z,-5.56
2019-02-24T23:43:33.199Z,-5.68
2019-02-24T23:46:02.564Z,-5.81
2019-02-24T23:48:31.948Z,-5.82
2019-02-24T23:51:01.303Z,-6.00
2019-02-24T23:53:30.644Z,-6.30
2019-02-24T23:56:00.001Z,-6.53
2019-02-24T23:58:29.372Z,-6.57
